sensor_id;sensor_type;location;lat;lon;timestamp;P1;durP1;ratioP1;P2;durP2;ratioP2
25687;SDS011;17407;51.120;3.702;2023-01-15T00:01:00;12.52;;;2.35;;
25687;SDS011;17407;51.120;3.702;2023-01-15T00:03:27;13.55;;;2.30;;
25687;SDS011;17407;51.120;3.702;2023-01-15T00:05:53;11.02;;;3.08;;
25687;SDS011;17407;51.120;3.702;2023-01-15T00:08:19;14.00;;;2.60;;
25687;SDS011;17407;51.120;3.702;2023-01-15T00:10:44;6.15;;;2.17;;
25687;SDS011;17407;51.120;3.702;2023-01-15T00:13:10;16.95;;;2.30;;
25687;SDS011;17407;51.120;3.702;2023-01-15T00:15:36;10.32;;;1.90;;
25687;SDS011;17407;51.120;3.702;2023-01-15T00:18:02;9.68;;;1.52;;
25687;SDS011;17407;51.120;3.702;2023-01-15T00:20:27;9.98;;;2.15;;
25687;SDS011;17407;51.120;3.702;2023-01-15T00:22:53;9.45;;;2.08;;
25687;SDS011;17407;51.120;3.702;2023-01-15T00:25:19;13.15;;;2.08;;
25687;SDS011;17407;51.120;3.702;2023-01-15T00:28:03;14.68;;;1.95;;
25687;SDS011;17407;51.120;3.702;2023-01-15T00:30:29;5.35;;;1.98;;
25687;SDS011;17407;51.120;3.702;2023-01-15T00:32:56;16.23;;;2.38;;
25687;SDS011;17407;51.120;3.702;2023-01-15T00:35:23;7.90;;;1.65;;
25687;SDS011;17407;51.120;3.702;2023-01-15T00:37:49;12.57;;;2.22;;
25687;SDS011;17407;51.120;3.702;2023-01-15T00:40:15;13.68;;;2.70;;
25687;SDS011;17407;51.120;3.702;2023-01-15T00:42:42;9.80;;;2.40;;
25687;SDS011;17407;51.120;3.702;2023-01-15T00:45:08;10.25;;;2.45;;
25687;SDS011;17407;51.120;3.702;2023-01-15T00:47:35;13.05;;;2.65;;
25687;SDS011;17407;51.120;3.702;2023-01-15T00:50:02;9.85;;;2.10;;
25687;SDS011;17407;51.120;3.702;2023-01-15T00:52:29;13.40;;;2.58;;
25687;SDS011;17407;51.120;3.702;2023-01-15T00:54:55;18.75;;;3.42;;
25687;SDS011;17407;51.120;3.702;2023-01-15T00:57:21;10.93;;;2.17;;
25687;SDS011;17407;51.120;3.702;2023-01-15T00:59:46;11.77;;;2.53;;
25687;SDS011;17407;51.120;3.702;2023-01-15T01:02:12;20.08;;;2.63;;
25687;SDS011;17407;51.120;3.702;2023-01-15T01:04:38;6.38;;;2.08;;
25687;SDS011;17407;51.120;3.702;2023-01-15T01:07:04;12.10;;;2.65;;
25687;SDS011;17407;51.120;3.702;2023-01-15T01:09:29;15.88;;;2.60;;
25687;SDS011;17407;51.120;3.702;2023-01-15T01:11:55;8.50;;;2.42;;
25687;SDS011;17407;51.120;3.702;2023-01-15T01:14:21;10.20;;;2.22;;
25687;SDS011;17407;51.120;3.702;2023-01-15T01:16:46;12.80;;;2.92;;
25687;SDS011;17407;51.120;3.702;2023-01-15T01:19:16;12.85;;;2.13;;
25687;SDS011;17407;51.120;3.702;2023-01-15T01:21:44;13.48;;;2.67;;
25687;SDS011;17407;51.120;3.702;2023-01-15T01:24:12;7.72;;;2.58;;
25687;SDS011;17407;51.120;3.702;2023-01-15T01:26:43;11.05;;;2.35;;
25687;SDS011;17407;51.120;3.702;2023-01-15T01:29:14;8.55;;;1.92;;
25687;SDS011;17407;51.120;3.702;2023-01-15T01:31:41;13.63;;;2.58;;
25687;SDS011;17407;51.120;3.702;2023-01-15T01:34:07;13.32;;;2.20;;
25687;SDS011;17407;51.120;3.702;2023-01-15T01:36:37;11.18;;;2.30;;
25687;SDS011;17407;51.120;3.702;2023-01-15T01:39:04;12.90;;;2.88;;
25687;SDS011;17407;51.120;3.702;2023-01-15T01:41:31;8.88;;;2.10;;
25687;SDS011;17407;51.120;3.702;2023-01-15T01:44:57;11.77;;;2.10;;
25687;SDS011;17407;51.120;3.702;2023-01-15T01:46:59;11.77;;;1.95;;
25687;SDS011;17407;51.120;3.702;2023-01-15T01:49:27;16.60;;;3.15;;
25687;SDS011;17407;51.120;3.702;2023-01-15T01:51:55;6.30;;;2.15;;
25687;SDS011;17407;51.120;3.702;2023-01-15T01:54:26;6.57;;;2.20;;
25687;SDS011;17407;51.120;3.702;2023-01-15T01:56:54;9.48;;;2.05;;
25687;SDS011;17407;51.120;3.702;2023-01-15T01:59:20;16.10;;;2.30;;
25687;SDS011;17407;51.120;3.702;2023-01-15T02:01:49;11.55;;;2.75;;
25687;SDS011;17407;51.120;3.702;2023-01-15T02:04:15;11.10;;;1.83;;
25687;SDS011;17407;51.120;3.702;2023-01-15T02:06:44;14.07;;;3.10;;
25687;SDS011;17407;51.120;3.702;2023-01-15T02:09:10;12.77;;;2.58;;
25687;SDS011;17407;51.120;3.702;2023-01-15T02:11:36;25.55;;;3.00;;
25687;SDS011;17407;51.120;3.702;2023-01-15T02:25:09;19.23;;;2.72;;
25687;SDS011;17407;51.120;3.702;2023-01-15T02:30:41;18.20;;;3.10;;
25687;SDS011;17407;51.120;3.702;2023-01-15T02:33:13;10.07;;;2.90;;
25687;SDS011;17407;51.120;3.702;2023-01-15T02:35:56;15.98;;;3.05;;
25687;SDS011;17407;51.120;3.702;2023-01-15T02:38:25;10.73;;;2.67;;
25687;SDS011;17407;51.120;3.702;2023-01-15T02:40:54;15.00;;;4.15;;
25687;SDS011;17407;51.120;3.702;2023-01-15T02:43:23;10.32;;;2.50;;
25687;SDS011;17407;51.120;3.702;2023-01-15T02:45:52;16.08;;;2.63;;
25687;SDS011;17407;51.120;3.702;2023-01-15T02:48:19;12.77;;;2.75;;
25687;SDS011;17407;51.120;3.702;2023-01-15T02:50:52;11.75;;;2.50;;
25687;SDS011;17407;51.120;3.702;2023-01-15T02:53:26;9.85;;;2.13;;
25687;SDS011;17407;51.120;3.702;2023-01-15T02:55:55;7.07;;;2.78;;
25687;SDS011;17407;51.120;3.702;2023-01-15T02:58:28;18.23;;;2.75;;
25687;SDS011;17407;51.120;3.702;2023-01-15T03:00:59;8.38;;;2.08;;
25687;SDS011;17407;51.120;3.702;2023-01-15T03:06:13;12.45;;;2.60;;
25687;SDS011;17407;51.120;3.702;2023-01-15T03:08:46;9.82;;;2.55;;
25687;SDS011;17407;51.120;3.702;2023-01-15T03:11:13;21.75;;;2.97;;
25687;SDS011;17407;51.120;3.702;2023-01-15T03:21:35;14.05;;;2.72;;
25687;SDS011;17407;51.120;3.702;2023-01-15T03:24:04;12.10;;;2.55;;
25687;SDS011;17407;51.120;3.702;2023-01-15T03:26:32;14.68;;;3.15;;
25687;SDS011;17407;51.120;3.702;2023-01-15T03:28:58;11.60;;;2.40;;
25687;SDS011;17407;51.120;3.702;2023-01-15T03:31:27;10.38;;;2.50;;
25687;SDS011;17407;51.120;3.702;2023-01-15T03:33:53;17.95;;;2.67;;
25687;SDS011;17407;51.120;3.702;2023-01-15T03:36:18;14.70;;;2.78;;
25687;SDS011;17407;51.120;3.702;2023-01-15T03:38:44;10.20;;;2.05;;
25687;SDS011;17407;51.120;3.702;2023-01-15T03:52:17;11.02;;;2.85;;
25687;SDS011;17407;51.120;3.702;2023-01-15T03:57:34;11.40;;;2.58;;
25687;SDS011;17407;51.120;3.702;2023-01-15T04:00:08;17.88;;;2.92;;
25687;SDS011;17407;51.120;3.702;2023-01-15T04:02:50;11.52;;;2.15;;
25687;SDS011;17407;51.120;3.702;2023-01-15T04:05:20;7.63;;;2.13;;
25687;SDS011;17407;51.120;3.702;2023-01-15T04:07:47;15.95;;;2.65;;
25687;SDS011;17407;51.120;3.702;2023-01-15T04:10:15;14.48;;;2.28;;
25687;SDS011;17407;51.120;3.702;2023-01-15T04:12:41;14.30;;;2.55;;
25687;SDS011;17407;51.120;3.702;2023-01-15T04:15:07;10.13;;;2.60;;
25687;SDS011;17407;51.120;3.702;2023-01-15T04:17:32;11.25;;;2.83;;
25687;SDS011;17407;51.120;3.702;2023-01-15T04:19:58;14.40;;;2.78;;
25687;SDS011;17407;51.120;3.702;2023-01-15T04:22:24;23.35;;;3.40;;
25687;SDS011;17407;51.120;3.702;2023-01-15T04:24:49;9.43;;;2.60;;
25687;SDS011;17407;51.120;3.702;2023-01-15T04:27:15;14.45;;;2.60;;
25687;SDS011;17407;51.120;3.702;2023-01-15T04:29:41;10.52;;;3.35;;
25687;SDS011;17407;51.120;3.702;2023-01-15T04:32:06;17.83;;;3.13;;
25687;SDS011;17407;51.120;3.702;2023-01-15T04:34:32;10.50;;;2.08;;
25687;SDS011;17407;51.120;3.702;2023-01-15T04:36:59;9.55;;;2.35;;
25687;SDS011;17407;51.120;3.702;2023-01-15T04:39:26;9.75;;;2.20;;
25687;SDS011;17407;51.120;3.702;2023-01-15T04:41:52;13.48;;;1.80;;
25687;SDS011;17407;51.120;3.702;2023-01-15T04:44:36;15.48;;;3.75;;
25687;SDS011;17407;51.120;3.702;2023-01-15T04:47:02;13.10;;;2.17;;
25687;SDS011;17407;51.120;3.702;2023-01-15T04:49:28;17.20;;;2.47;;
25687;SDS011;17407;51.120;3.702;2023-01-15T04:51:53;18.27;;;2.22;;
25687;SDS011;17407;51.120;3.702;2023-01-15T04:54:19;16.50;;;2.63;;
25687;SDS011;17407;51.120;3.702;2023-01-15T04:56:47;16.10;;;3.05;;
25687;SDS011;17407;51.120;3.702;2023-01-15T04:59:14;7.95;;;2.05;;
25687;SDS011;17407;51.120;3.702;2023-01-15T05:01:41;10.85;;;2.10;;
25687;SDS011;17407;51.120;3.702;2023-01-15T05:04:07;7.55;;;2.47;;
25687;SDS011;17407;51.120;3.702;2023-01-15T05:06:33;10.70;;;2.25;;
25687;SDS011;17407;51.120;3.702;2023-01-15T05:08:59;11.35;;;3.20;;
25687;SDS011;17407;51.120;3.702;2023-01-15T05:11:25;19.88;;;3.72;;
25687;SDS011;17407;51.120;3.702;2023-01-15T05:13:52;11.95;;;2.78;;
25687;SDS011;17407;51.120;3.702;2023-01-15T05:16:22;10.68;;;2.40;;
25687;SDS011;17407;51.120;3.702;2023-01-15T05:18:51;14.38;;;2.10;;
25687;SDS011;17407;51.120;3.702;2023-01-15T05:23:48;17.98;;;3.20;;
25687;SDS011;17407;51.120;3.702;2023-01-15T05:26:15;13.30;;;2.58;;
25687;SDS011;17407;51.120;3.702;2023-01-15T05:28:41;10.45;;;2.50;;
25687;SDS011;17407;51.120;3.702;2023-01-15T09:36:14;9.05;;;2.00;;
25687;SDS011;17407;51.120;3.702;2023-01-15T09:38:41;6.75;;;2.13;;
25687;SDS011;17407;51.120;3.702;2023-01-15T09:41:10;9.02;;;2.55;;
25687;SDS011;17407;51.120;3.702;2023-01-15T09:55:00;3.53;;;1.52;;
25687;SDS011;17407;51.120;3.702;2023-01-15T09:57:31;5.32;;;1.17;;
25687;SDS011;17407;51.120;3.702;2023-01-15T09:59:58;4.47;;;1.50;;
25687;SDS011;17407;51.120;3.702;2023-01-15T10:02:37;3.22;;;1.27;;
25687;SDS011;17407;51.120;3.702;2023-01-15T10:05:20;6.63;;;1.30;;
25687;SDS011;17407;51.120;3.702;2023-01-15T10:08:05;8.85;;;2.08;;
25687;SDS011;17407;51.120;3.702;2023-01-15T10:10:46;7.80;;;1.80;;
25687;SDS011;17407;51.120;3.702;2023-01-15T10:15:59;9.38;;;1.85;;
25687;SDS011;17407;51.120;3.702;2023-01-15T10:18:25;6.60;;;1.55;;
25687;SDS011;17407;51.120;3.702;2023-01-15T10:26:36;6.03;;;1.63;;
25687;SDS011;17407;51.120;3.702;2023-01-15T10:29:17;8.23;;;1.92;;
25687;SDS011;17407;51.120;3.702;2023-01-15T10:34:57;6.50;;;1.80;;
25687;SDS011;17407;51.120;3.702;2023-01-15T10:37:37;6.93;;;1.63;;
25687;SDS011;17407;51.120;3.702;2023-01-15T10:46:11;8.88;;;1.63;;
25687;SDS011;17407;51.120;3.702;2023-01-15T10:48:55;6.90;;;2.15;;
25687;SDS011;17407;51.120;3.702;2023-01-15T10:51:28;9.93;;;2.25;;
25687;SDS011;17407;51.120;3.702;2023-01-15T10:54:04;11.52;;;2.30;;
25687;SDS011;17407;51.120;3.702;2023-01-15T10:56:52;7.18;;;2.33;;
25687;SDS011;17407;51.120;3.702;2023-01-15T10:59:48;10.85;;;1.98;;
25687;SDS011;17407;51.120;3.702;2023-01-15T11:04:56;7.68;;;1.90;;
25687;SDS011;17407;51.120;3.702;2023-01-15T11:07:34;6.07;;;1.67;;
25687;SDS011;17407;51.120;3.702;2023-01-15T11:10:04;3.55;;;1.73;;
25687;SDS011;17407;51.120;3.702;2023-01-15T11:12:31;8.75;;;2.00;;
25687;SDS011;17407;51.120;3.702;2023-01-15T11:15:25;9.20;;;2.00;;
25687;SDS011;17407;51.120;3.702;2023-01-15T11:18:11;8.05;;;2.42;;
25687;SDS011;17407;51.120;3.702;2023-01-15T11:21:25;5.88;;;1.70;;
25687;SDS011;17407;51.120;3.702;2023-01-15T11:26:22;11.30;;;2.10;;
25687;SDS011;17407;51.120;3.702;2023-01-15T11:28:51;6.65;;;1.80;;
25687;SDS011;17407;51.120;3.702;2023-01-15T11:31:17;7.57;;;2.30;;
25687;SDS011;17407;51.120;3.702;2023-01-15T11:34:05;4.22;;;1.83;;
25687;SDS011;17407;51.120;3.702;2023-01-15T11:36:42;7.72;;;1.63;;
25687;SDS011;17407;51.120;3.702;2023-01-15T11:39:23;10.55;;;2.20;;
25687;SDS011;17407;51.120;3.702;2023-01-15T11:41:57;4.53;;;1.98;;
25687;SDS011;17407;51.120;3.702;2023-01-15T11:44:53;8.07;;;2.20;;
25687;SDS011;17407;51.120;3.702;2023-01-15T11:47:38;5.75;;;1.45;;
25687;SDS011;17407;51.120;3.702;2023-01-15T11:50:33;3.75;;;1.73;;
25687;SDS011;17407;51.120;3.702;2023-01-15T11:53:12;6.88;;;2.45;;
25687;SDS011;17407;51.120;3.702;2023-01-15T11:55:49;11.35;;;1.83;;
25687;SDS011;17407;51.120;3.702;2023-01-15T11:58:19;4.97;;;2.17;;
25687;SDS011;17407;51.120;3.702;2023-01-15T12:00:48;9.35;;;1.92;;
25687;SDS011;17407;51.120;3.702;2023-01-15T12:03:17;9.90;;;1.73;;
25687;SDS011;17407;51.120;3.702;2023-01-15T12:05:46;5.10;;;1.65;;
25687;SDS011;17407;51.120;3.702;2023-01-15T12:11:42;7.68;;;1.83;;
25687;SDS011;17407;51.120;3.702;2023-01-15T12:22:23;4.20;;;1.70;;
25687;SDS011;17407;51.120;3.702;2023-01-15T12:28:11;14.45;;;2.25;;
25687;SDS011;17407;51.120;3.702;2023-01-15T12:36:01;5.60;;;1.98;;
25687;SDS011;17407;51.120;3.702;2023-01-15T12:38:49;12.00;;;3.05;;
25687;SDS011;17407;51.120;3.702;2023-01-15T12:44:33;10.65;;;1.95;;
25687;SDS011;17407;51.120;3.702;2023-01-15T12:48:11;16.55;;;2.47;;
25687;SDS011;17407;51.120;3.702;2023-01-15T12:53:12;7.47;;;1.77;;
25687;SDS011;17407;51.120;3.702;2023-01-15T13:06:41;10.00;;;1.70;;
25687;SDS011;17407;51.120;3.702;2023-01-15T13:09:22;5.47;;;2.03;;
25687;SDS011;17407;51.120;3.702;2023-01-15T13:12:31;7.18;;;2.00;;
25687;SDS011;17407;51.120;3.702;2023-01-15T13:14:57;6.43;;;1.85;;
25687;SDS011;17407;51.120;3.702;2023-01-15T13:17:37;6.32;;;1.55;;
25687;SDS011;17407;51.120;3.702;2023-01-15T13:23:36;6.38;;;1.83;;
25687;SDS011;17407;51.120;3.702;2023-01-15T13:29:18;2.15;;;1.25;;
25687;SDS011;17407;51.120;3.702;2023-01-15T13:34:49;4.75;;;1.80;;
25687;SDS011;17407;51.120;3.702;2023-01-15T13:39:50;9.60;;;5.43;;
25687;SDS011;17407;51.120;3.702;2023-01-15T13:42:38;4.20;;;2.20;;
25687;SDS011;17407;51.120;3.702;2023-01-15T13:45:20;2.67;;;2.08;;
25687;SDS011;17407;51.120;3.702;2023-01-15T13:47:51;10.63;;;5.20;;
25687;SDS011;17407;51.120;3.702;2023-01-15T13:52:59;8.68;;;3.38;;
25687;SDS011;17407;51.120;3.702;2023-01-15T13:55:32;12.27;;;6.28;;
25687;SDS011;17407;51.120;3.702;2023-01-15T13:58:15;8.07;;;3.90;;
25687;SDS011;17407;51.120;3.702;2023-01-15T14:00:46;11.07;;;5.53;;
25687;SDS011;17407;51.120;3.702;2023-01-15T14:06:34;12.38;;;6.57;;
25687;SDS011;17407;51.120;3.702;2023-01-15T14:09:11;4.22;;;1.92;;
25687;SDS011;17407;51.120;3.702;2023-01-15T14:19:52;6.18;;;2.42;;
25687;SDS011;17407;51.120;3.702;2023-01-15T14:28:31;6.28;;;2.40;;
25687;SDS011;17407;51.120;3.702;2023-01-15T14:31:11;18.13;;;2.17;;
25687;SDS011;17407;51.120;3.702;2023-01-15T14:36:55;8.30;;;2.53;;
25687;SDS011;17407;51.120;3.702;2023-01-15T14:41:57;6.65;;;2.35;;
25687;SDS011;17407;51.120;3.702;2023-01-15T14:44:47;9.07;;;3.38;;
25687;SDS011;17407;51.120;3.702;2023-01-15T14:47:25;5.35;;;2.42;;
25687;SDS011;17407;51.120;3.702;2023-01-15T14:49:58;11.32;;;3.22;;
25687;SDS011;17407;51.120;3.702;2023-01-15T14:52:26;10.35;;;2.65;;
25687;SDS011;17407;51.120;3.702;2023-01-15T14:54:52;10.70;;;2.10;;
25687;SDS011;17407;51.120;3.702;2023-01-15T14:57:19;11.45;;;3.58;;
25687;SDS011;17407;51.120;3.702;2023-01-15T14:59:57;6.45;;;2.50;;
25687;SDS011;17407;51.120;3.702;2023-01-15T15:02:34;7.38;;;3.00;;
25687;SDS011;17407;51.120;3.702;2023-01-15T15:05:04;9.65;;;2.50;;
25687;SDS011;17407;51.120;3.702;2023-01-15T15:07:41;12.88;;;2.65;;
25687;SDS011;17407;51.120;3.702;2023-01-15T15:16:27;8.02;;;2.83;;
25687;SDS011;17407;51.120;3.702;2023-01-15T15:18:41;14.75;;;3.70;;
25687;SDS011;17407;51.120;3.702;2023-01-15T15:21:11;8.05;;;2.72;;
25687;SDS011;17407;51.120;3.702;2023-01-15T15:23:57;11.40;;;2.80;;
25687;SDS011;17407;51.120;3.702;2023-01-15T15:26:33;4.88;;;2.42;;
25687;SDS011;17407;51.120;3.702;2023-01-15T15:31:39;5.47;;;2.15;;
25687;SDS011;17407;51.120;3.702;2023-01-15T15:34:14;7.97;;;2.20;;
25687;SDS011;17407;51.120;3.702;2023-01-15T15:36:46;7.05;;;2.17;;
25687;SDS011;17407;51.120;3.702;2023-01-15T15:39:19;5.78;;;1.85;;
25687;SDS011;17407;51.120;3.702;2023-01-15T15:42:03;4.97;;;1.95;;
25687;SDS011;17407;51.120;3.702;2023-01-15T15:44:57;3.92;;;2.10;;
25687;SDS011;17407;51.120;3.702;2023-01-15T15:47:42;7.82;;;2.67;;
25687;SDS011;17407;51.120;3.702;2023-01-15T15:50:28;11.52;;;2.60;;
25687;SDS011;17407;51.120;3.702;2023-01-15T15:52:55;4.68;;;2.53;;
25687;SDS011;17407;51.120;3.702;2023-01-15T15:55:22;8.63;;;3.40;;
25687;SDS011;17407;51.120;3.702;2023-01-15T15:57:54;5.53;;;2.92;;
25687;SDS011;17407;51.120;3.702;2023-01-15T16:00:26;8.48;;;3.33;;
25687;SDS011;17407;51.120;3.702;2023-01-15T16:02:58;5.10;;;2.75;;
25687;SDS011;17407;51.120;3.702;2023-01-15T16:05:29;6.10;;;2.22;;
25687;SDS011;17407;51.120;3.702;2023-01-15T16:08:05;6.78;;;2.10;;
25687;SDS011;17407;51.120;3.702;2023-01-15T16:10:42;6.32;;;1.85;;
25687;SDS011;17407;51.120;3.702;2023-01-15T16:13:20;8.38;;;2.08;;
25687;SDS011;17407;51.120;3.702;2023-01-15T16:15:50;5.40;;;2.35;;
25687;SDS011;17407;51.120;3.702;2023-01-15T16:18:30;8.73;;;3.15;;
25687;SDS011;17407;51.120;3.702;2023-01-15T16:20:58;5.15;;;2.92;;
25687;SDS011;17407;51.120;3.702;2023-01-15T16:23:25;5.82;;;2.90;;
25687;SDS011;17407;51.120;3.702;2023-01-15T16:26:08;6.03;;;2.25;;
25687;SDS011;17407;51.120;3.702;2023-01-15T16:28:40;7.45;;;2.25;;
25687;SDS011;17407;51.120;3.702;2023-01-15T16:31:11;6.63;;;4.20;;
25687;SDS011;17407;51.120;3.702;2023-01-15T16:33:40;3.15;;;2.33;;
25687;SDS011;17407;51.120;3.702;2023-01-15T16:36:06;4.70;;;2.22;;
25687;SDS011;17407;51.120;3.702;2023-01-15T16:38:37;4.32;;;2.95;;
25687;SDS011;17407;51.120;3.702;2023-01-15T16:41:05;4.78;;;2.58;;
25687;SDS011;17407;51.120;3.702;2023-01-15T16:43:31;4.03;;;1.70;;
25687;SDS011;17407;51.120;3.702;2023-01-15T16:46:16;5.78;;;2.42;;
25687;SDS011;17407;51.120;3.702;2023-01-15T16:48:43;7.40;;;2.30;;
25687;SDS011;17407;51.120;3.702;2023-01-15T16:51:29;5.32;;;1.77;;
25687;SDS011;17407;51.120;3.702;2023-01-15T16:54:00;6.07;;;3.67;;
25687;SDS011;17407;51.120;3.702;2023-01-15T17:01:51;6.15;;;2.30;;
25687;SDS011;17407;51.120;3.702;2023-01-15T17:04:27;11.13;;;2.30;;
25687;SDS011;17407;51.120;3.702;2023-01-15T17:09:51;3.85;;;2.35;;
25687;SDS011;17407;51.120;3.702;2023-01-15T17:17:54;11.68;;;3.03;;
25687;SDS011;17407;51.120;3.702;2023-01-15T17:20:21;8.43;;;3.55;;
25687;SDS011;17407;51.120;3.702;2023-01-15T17:22:51;6.18;;;3.22;;
25687;SDS011;17407;51.120;3.702;2023-01-15T17:27:55;7.45;;;3.08;;
25687;SDS011;17407;51.120;3.702;2023-01-15T17:30:23;4.65;;;2.95;;
25687;SDS011;17407;51.120;3.702;2023-01-15T17:32:55;9.82;;;3.67;;
25687;SDS011;17407;51.120;3.702;2023-01-15T17:35:22;9.90;;;3.47;;
25687;SDS011;17407;51.120;3.702;2023-01-15T17:37:49;11.77;;;3.45;;
25687;SDS011;17407;51.120;3.702;2023-01-15T17:40:15;6.88;;;3.33;;
25687;SDS011;17407;51.120;3.702;2023-01-15T17:42:41;11.93;;;3.70;;
25687;SDS011;17407;51.120;3.702;2023-01-15T17:45:08;12.15;;;3.60;;
25687;SDS011;17407;51.120;3.702;2023-01-15T17:47:44;8.00;;;3.90;;
25687;SDS011;17407;51.120;3.702;2023-01-15T17:50:10;7.53;;;3.95;;
25687;SDS011;17407;51.120;3.702;2023-01-15T17:52:36;12.68;;;4.32;;
25687;SDS011;17407;51.120;3.702;2023-01-15T17:55:02;13.30;;;4.32;;
25687;SDS011;17407;51.120;3.702;2023-01-15T17:57:46;9.07;;;4.13;;
25687;SDS011;17407;51.120;3.702;2023-01-15T18:00:31;6.15;;;4.70;;
25687;SDS011;17407;51.120;3.702;2023-01-15T18:03:15;8.10;;;3.28;;
25687;SDS011;17407;51.120;3.702;2023-01-15T18:06:03;10.13;;;3.55;;
25687;SDS011;17407;51.120;3.702;2023-01-15T18:08:29;12.90;;;3.45;;
25687;SDS011;17407;51.120;3.702;2023-01-15T18:10:56;10.13;;;3.90;;
25687;SDS011;17407;51.120;3.702;2023-01-15T18:13:22;7.45;;;4.03;;
25687;SDS011;17407;51.120;3.702;2023-01-15T18:15:47;9.07;;;5.55;;
25687;SDS011;17407;51.120;3.702;2023-01-15T18:18:15;16.05;;;6.43;;
25687;SDS011;17407;51.120;3.702;2023-01-15T18:20:40;11.25;;;6.97;;
25687;SDS011;17407;51.120;3.702;2023-01-15T18:23:06;8.52;;;5.00;;
25687;SDS011;17407;51.120;3.702;2023-01-15T18:25:33;10.60;;;4.18;;
25687;SDS011;17407;51.120;3.702;2023-01-15T18:27:59;7.68;;;3.33;;
25687;SDS011;17407;51.120;3.702;2023-01-15T18:30:24;7.32;;;4.25;;
25687;SDS011;17407;51.120;3.702;2023-01-15T18:32:50;10.85;;;5.55;;
25687;SDS011;17407;51.120;3.702;2023-01-15T18:35:17;15.77;;;9.18;;
25687;SDS011;17407;51.120;3.702;2023-01-15T18:37:43;14.27;;;7.35;;
25687;SDS011;17407;51.120;3.702;2023-01-15T18:40:09;13.52;;;7.07;;
25687;SDS011;17407;51.120;3.702;2023-01-15T18:42:41;10.15;;;5.93;;
25687;SDS011;17407;51.120;3.702;2023-01-15T18:45:25;8.88;;;5.20;;
25687;SDS011;17407;51.120;3.702;2023-01-15T18:48:09;7.55;;;5.20;;
25687;SDS011;17407;51.120;3.702;2023-01-15T18:50:35;11.80;;;5.40;;
25687;SDS011;17407;51.120;3.702;2023-01-15T18:53:01;9.50;;;5.90;;
25687;SDS011;17407;51.120;3.702;2023-01-15T18:55:26;10.75;;;6.25;;
25687;SDS011;17407;51.120;3.702;2023-01-15T18:57:53;6.95;;;5.38;;
25687;SDS011;17407;51.120;3.702;2023-01-15T19:00:19;12.85;;;4.95;;
25687;SDS011;17407;51.120;3.702;2023-01-15T19:02:47;14.93;;;5.10;;
25687;SDS011;17407;51.120;3.702;2023-01-15T19:05:13;9.95;;;4.57;;
25687;SDS011;17407;51.120;3.702;2023-01-15T19:07:41;7.53;;;4.15;;
25687;SDS011;17407;51.120;3.702;2023-01-15T19:10:08;10.88;;;4.68;;
25687;SDS011;17407;51.120;3.702;2023-01-15T19:12:34;9.50;;;4.50;;
25687;SDS011;17407;51.120;3.702;2023-01-15T19:15:01;11.98;;;4.40;;
25687;SDS011;17407;51.120;3.702;2023-01-15T19:17:53;10.50;;;4.07;;
25687;SDS011;17407;51.120;3.702;2023-01-15T19:23:03;12.30;;;3.33;;
25687;SDS011;17407;51.120;3.702;2023-01-15T19:28:08;8.57;;;2.70;;
25687;SDS011;17407;51.120;3.702;2023-01-15T19:30:36;7.22;;;2.70;;
25687;SDS011;17407;51.120;3.702;2023-01-15T19:33:03;8.25;;;2.47;;
25687;SDS011;17407;51.120;3.702;2023-01-15T19:35:29;9.25;;;2.85;;
25687;SDS011;17407;51.120;3.702;2023-01-15T19:37:55;4.13;;;2.25;;
25687;SDS011;17407;51.120;3.702;2023-01-15T19:40:21;7.40;;;2.25;;
25687;SDS011;17407;51.120;3.702;2023-01-15T19:42:51;17.30;;;4.80;;
25687;SDS011;17407;51.120;3.702;2023-01-15T19:45:40;6.00;;;2.30;;
25687;SDS011;17407;51.120;3.702;2023-01-15T19:48:26;2.20;;;1.60;;
25687;SDS011;17407;51.120;3.702;2023-01-15T19:53:37;9.38;;;2.17;;
25687;SDS011;17407;51.120;3.702;2023-01-15T19:56:04;6.88;;;2.65;;
25687;SDS011;17407;51.120;3.702;2023-01-15T19:58:31;7.05;;;2.58;;
25687;SDS011;17407;51.120;3.702;2023-01-15T20:01:01;3.60;;;1.88;;
25687;SDS011;17407;51.120;3.702;2023-01-15T20:03:27;4.22;;;1.80;;
25687;SDS011;17407;51.120;3.702;2023-01-15T20:05:53;4.78;;;2.88;;
25687;SDS011;17407;51.120;3.702;2023-01-15T20:08:19;5.93;;;2.35;;
25687;SDS011;17407;51.120;3.702;2023-01-15T20:10:46;9.00;;;2.75;;
25687;SDS011;17407;51.120;3.702;2023-01-15T20:13:15;3.67;;;2.10;;
25687;SDS011;17407;51.120;3.702;2023-01-15T20:16:04;4.97;;;2.10;;
25687;SDS011;17407;51.120;3.702;2023-01-15T20:18:32;7.05;;;2.50;;
25687;SDS011;17407;51.120;3.702;2023-01-15T20:20:58;8.05;;;2.08;;
25687;SDS011;17407;51.120;3.702;2023-01-15T20:23:24;3.20;;;2.22;;
25687;SDS011;17407;51.120;3.702;2023-01-15T20:25:50;7.43;;;2.45;;
25687;SDS011;17407;51.120;3.702;2023-01-15T20:28:17;5.72;;;2.45;;
25687;SDS011;17407;51.120;3.702;2023-01-15T20:30:43;7.00;;;3.00;;
25687;SDS011;17407;51.120;3.702;2023-01-15T20:33:09;2.78;;;2.28;;
25687;SDS011;17407;51.120;3.702;2023-01-15T20:35:35;4.95;;;2.17;;
25687;SDS011;17407;51.120;3.702;2023-01-15T20:38:01;3.22;;;2.10;;
25687;SDS011;17407;51.120;3.702;2023-01-15T20:40:27;4.13;;;2.05;;
25687;SDS011;17407;51.120;3.702;2023-01-15T20:42:53;6.43;;;3.17;;
25687;SDS011;17407;51.120;3.702;2023-01-15T20:48:04;3.42;;;1.80;;
25687;SDS011;17407;51.120;3.702;2023-01-15T20:50:37;1.23;;;1.17;;
25687;SDS011;17407;51.120;3.702;2023-01-15T20:53:05;2.47;;;2.15;;
25687;SDS011;17407;51.120;3.702;2023-01-15T20:55:32;3.03;;;2.13;;
25687;SDS011;17407;51.120;3.702;2023-01-15T20:58:04;3.03;;;2.10;;
25687;SDS011;17407;51.120;3.702;2023-01-15T21:00:31;2.70;;;2.22;;
25687;SDS011;17407;51.120;3.702;2023-01-15T21:02:58;3.80;;;2.05;;
25687;SDS011;17407;51.120;3.702;2023-01-15T21:05:26;3.88;;;2.20;;
25687;SDS011;17407;51.120;3.702;2023-01-15T21:07:53;2.28;;;1.98;;
25687;SDS011;17407;51.120;3.702;2023-01-15T21:10:19;3.20;;;2.15;;
25687;SDS011;17407;51.120;3.702;2023-01-15T21:12:46;2.97;;;2.20;;
25687;SDS011;17407;51.120;3.702;2023-01-15T21:15:12;2.50;;;2.30;;
25687;SDS011;17407;51.120;3.702;2023-01-15T21:17:39;1.83;;;1.70;;
25687;SDS011;17407;51.120;3.702;2023-01-15T21:20:06;3.33;;;2.20;;
25687;SDS011;17407;51.120;3.702;2023-01-15T21:22:34;4.22;;;2.53;;
25687;SDS011;17407;51.120;3.702;2023-01-15T21:25:00;2.65;;;2.45;;
25687;SDS011;17407;51.120;3.702;2023-01-15T21:27:26;3.17;;;2.85;;
25687;SDS011;17407;51.120;3.702;2023-01-15T21:29:52;4.00;;;3.45;;
25687;SDS011;17407;51.120;3.702;2023-01-15T21:32:20;5.13;;;3.08;;
25687;SDS011;17407;51.120;3.702;2023-01-15T21:34:46;5.60;;;3.50;;
25687;SDS011;17407;51.120;3.702;2023-01-15T21:37:13;7.50;;;3.03;;
25687;SDS011;17407;51.120;3.702;2023-01-15T21:39:39;3.47;;;3.00;;
25687;SDS011;17407;51.120;3.702;2023-01-15T21:42:05;6.72;;;3.50;;
25687;SDS011;17407;51.120;3.702;2023-01-15T21:44:50;4.03;;;3.10;;
25687;SDS011;17407;51.120;3.702;2023-01-15T21:47:16;4.88;;;3.00;;
25687;SDS011;17407;51.120;3.702;2023-01-15T21:49:43;3.28;;;2.97;;
25687;SDS011;17407;51.120;3.702;2023-01-15T21:52:11;4.60;;;2.88;;
25687;SDS011;17407;51.120;3.702;2023-01-15T21:54:39;4.70;;;3.03;;
25687;SDS011;17407;51.120;3.702;2023-01-15T21:57:05;5.25;;;3.13;;
25687;SDS011;17407;51.120;3.702;2023-01-15T21:59:32;11.68;;;4.35;;
25687;SDS011;17407;51.120;3.702;2023-01-15T22:01:58;6.18;;;3.33;;
25687;SDS011;17407;51.120;3.702;2023-01-15T22:04:25;11.15;;;4.72;;
25687;SDS011;17407;51.120;3.702;2023-01-15T22:06:52;8.93;;;4.47;;
25687;SDS011;17407;51.120;3.702;2023-01-15T22:09:18;12.05;;;4.35;;
25687;SDS011;17407;51.120;3.702;2023-01-15T22:11:45;10.45;;;4.65;;
25687;SDS011;17407;51.120;3.702;2023-01-15T22:14:13;9.13;;;4.35;;
25687;SDS011;17407;51.120;3.702;2023-01-15T22:16:40;11.48;;;4.28;;